Time;durP1;ratioP1;P1;durP2;ratioP2;P2;SDS_P1;SDS_P2;PMS_P1;PMS_P2;Temp;Humidity;BMP_temperature;BMP_pressure;BME280_temperature;BME280_humidity;BME280_pressure;Samples;Min_cycle;Max_cycle;Signal;HPM_P1;HPM_P2
2022/03/06 00:00:40;;;;;;;42.33;19.83;;;;;;;4.16;98.83;96989.97;5082675;28;20059;-60
2022/03/06 00:03:07;;;;;;;42.85;19.67;;;;;;;4.14;99.37;96976.59;5083499;28;20131;-57
2022/03/06 00:05:35;;;;;;;41.35;18.20;;;;;;;4.12;100.00;96983.56;5083434;28;20052;-60
2022/03/06 00:08:02;;;;;;;37.88;17.20;;;;;;;4.10;99.31;96975.69;5082026;28;20062;-60
2022/03/06 00:10:30;;;;;;;39.13;16.80;;;;;;;3.94;99.86;96974.63;5083840;28;20056;-60
2022/03/06 00:12:56;;;;;;;40.45;17.83;;;;;;;3.78;100.00;96935.22;5082342;28;20052;-58
2022/03/06 00:15:25;;;;;;;39.22;18.17;;;;;;;3.94;100.00;96977.38;5083360;28;20148;-60
2022/03/06 00:17:55;;;;;;;36.33;17.98;;;;;;;3.90;100.00;96976.44;5083850;28;20155;-61
2022/03/06 00:20:22;;;;;;;43.92;18.30;;;;;;;3.87;100.00;96977.06;5086884;28;20071;-60
2022/03/06 00:22:49;;;;;;;41.15;18.25;;;;;;;3.83;100.00;96978.03;5087698;28;20044;-60
2022/03/06 00:25:16;;;;;;;45.45;19.58;;;;;;;3.77;100.00;96977.44;5087422;28;20688;-61
2022/03/06 00:27:43;;;;;;;40.63;18.05;;;;;;;3.85;100.00;96973.06;5081407;28;20048;-60
2022/03/06 00:30:11;;;;;;;46.00;20.67;;;;;;;3.82;100.00;96977.25;5065796;28;20048;-60
2022/03/06 00:32:37;;;;;;;42.00;19.77;;;;;;;3.74;100.00;96967.13;5065870;28;20434;-60
2022/03/06 00:35:05;;;;;;;45.20;19.60;;;;;;;3.74;100.00;96967.13;5067588;28;20060;-61
2022/03/06 00:37:32;;;;;;;41.85;19.67;;;;;;;3.80;100.00;96971.31;5067161;28;20067;-60
2022/03/06 00:39:58;;;;;;;46.55;22.67;;;;;;;3.47;100.00;96912.78;5065285;28;20048;-61
2022/03/06 00:42:25;;;;;;;44.28;19.65;;;;;;;3.68;100.00;96943.81;5066897;28;20064;-59
2022/03/06 00:44:53;;;;;;;41.33;19.40;;;;;;;3.73;100.00;96960.03;5066821;28;20052;-60
2022/03/06 00:47:20;;;;;;;45.88;20.67;;;;;;;3.67;100.00;96958.63;5066944;28;20063;-60
2022/03/06 00:49:47;;;;;;;45.65;20.77;;;;;;;2.97;100.00;96848.91;5067060;28;20056;-59
2022/03/06 00:52:14;;;;;;;49.40;21.25;;;;;;;3.69;100.00;96956.38;5057383;27;20491;-59
2022/03/06 00:54:40;;;;;;;46.80;21.67;;;;;;;3.14;100.00;96859.78;5066630;28;20049;-59
2022/03/06 00:57:07;;;;;;;46.45;21.67;;;;;;;3.62;100.00;96958.78;5066729;28;20064;-60
2022/03/06 00:59:35;;;;;;;42.10;19.65;;;;;;;3.55;100.00;96936.59;5066560;28;20055;-60
2022/03/06 01:02:04;;;;;;;43.95;19.75;;;;;;;3.69;100.00;96956.38;5064853;28;20056;-61
2022/03/06 01:04:32;;;;;;;47.08;21.63;;;;;;;3.23;100.00;96879.72;5066069;28;20519;-59
2022/03/06 01:06:59;;;;;;;42.75;19.80;;;;;;;3.72;100.00;96963.91;5064830;28;20056;-59
2022/03/06 01:09:25;;;;;;;40.55;18.35;;;;;;;3.68;100.00;96962.16;5066324;28;20507;-60
2022/03/06 01:11:52;;;;;;;43.65;19.88;;;;;;;3.50;100.00;96934.03;5065300;28;20059;-60
2022/03/06 01:14:19;;;;;;;38.58;19.38;;;;;;;3.05;100.00;96889.91;5066261;28;20550;-58
2022/03/06 01:16:46;;;;;;;48.17;20.45;;;;;;;3.42;100.00;96959.50;5066000;28;20064;-59
2022/03/06 01:19:13;;;;;;;46.30;20.45;;;;;;;3.46;100.00;96959.66;5065889;28;20159;-59
2022/03/06 01:21:40;;;;;;;45.65;20.88;;;;;;;3.43;100.00;96950.16;5065822;28;20052;-59
2022/03/06 01:24:07;;;;;;;43.75;20.63;;;;;;;3.43;100.00;96946.63;5064509;28;20059;-60
2022/03/06 01:26:34;;;;;;;42.08;19.20;;;;;;;3.37;100.00;96947.94;5064854;28;20439;-60
2022/03/06 01:29:00;;;;;;;47.13;20.50;;;;;;;2.99;100.00;96906.81;5081786;28;20048;-59
2022/03/06 01:31:27;;;;;;;39.95;18.27;;;;;;;3.34;100.00;96962.25;5085627;28;20060;-62
2022/03/06 01:33:54;;;;;;;43.95;17.90;;;;;;;3.08;100.00;96915.81;5084578;28;20056;-60
2022/03/06 01:36:20;;;;;;;47.60;21.55;;;;;;;3.26;100.00;96963.09;5084516;28;20056;-59
2022/03/06 01:38:47;;;;;;;45.55;20.35;;;;;;;3.22;100.00;96949.25;5084704;28;20048;-59
2022/03/06 01:41:14;;;;;;;40.25;19.77;;;;;;;3.33;100.00;96969.69;5085838;28;20056;-59
2022/03/06 01:43:41;;;;;;;41.58;19.83;;;;;;;3.39;100.00;96960.16;5086066;28;20085;-59
2022/03/06 01:46:08;;;;;;;41.95;18.58;;;;;;;3.17;100.00;96935.75;5085936;28;20146;-61
2022/03/06 01:48:34;;;;;;;44.83;21.17;;;;;;;3.31;100.00;96951.97;5084140;28;20048;-59
2022/03/06 01:51:01;;;;;;;46.58;20.83;;;;;;;3.29;100.00;96955.03;5085566;28;20058;-60
2022/03/06 01:53:28;;;;;;;47.33;22.17;;;;;;;3.28;100.00;96950.69;5085913;28;20048;-60
2022/03/06 01:55:55;;;;;;;41.83;19.63;;;;;;;3.27;100.00;96951.84;5086202;28;20044;-60
2022/03/06 01:58:21;;;;;;;46.05;20.00;;;;;;;3.16;100.00;96949.75;5085400;28;20055;-59
2022/03/06 02:00:49;;;;;;;42.08;19.17;;;;;;;3.08;100.00;96948.66;5085732;28;20481;-59
2022/03/06 02:03:19;;;;;;;45.97;21.23;;;;;;;3.04;100.00;96947.69;5085559;28;20105;-59
2022/03/06 02:05:48;;;;;;;44.78;18.27;;;;;;;2.96;100.00;96945.75;5085790;28;20063;-59
2022/03/06 02:08:14;;;;;;;46.67;20.60;;;;;;;2.87;100.00;96931.28;5085375;28;20490;-59
2022/03/06 02:10:41;;;;;;;52.25;20.77;;;;;;;2.58;100.00;96880.00;5085593;28;20074;-58
2022/03/06 02:13:08;;;;;;;46.80;21.27;;;;;;;2.69;100.00;96891.41;5085603;28;20048;-60
2022/03/06 02:15:35;;;;;;;44.13;20.05;;;;;;;2.71;100.00;96911.03;5084986;28;20514;-60
2022/03/06 02:18:02;;;;;;;47.00;19.25;;;;;;;2.90;100.00;96934.19;5086072;28;20541;-59
2022/03/06 02:20:29;;;;;;;47.38;20.52;;;;;;;2.80;100.00;96945.47;5085998;28;20118;-59
2022/03/06 02:22:57;;;;;;;45.05;19.58;;;;;;;2.88;100.00;96946.56;5085421;28;20047;-58
2022/03/06 02:25:35;;;;;;;41.90;17.98;;;;;;;2.83;100.00;96946.72;5084858;28;20052;-59
2022/03/06 02:28:09;;;;;;;51.50;20.73;;;;;;;2.84;100.00;96942.88;5078342;28;20055;-59
2022/03/06 02:30:39;;;;;;;37.30;17.17;;;;;;;2.70;100.00;96942.25;5063157;28;20508;-61
2022/03/06 02:33:08;;;;;;;49.55;21.45;;;;;;;2.74;100.00;96948.66;5064958;28;20052;-59
2022/03/06 02:35:36;;;;;;;48.17;18.83;;;;;;;2.69;100.00;96951.56;5064794;28;20049;-60
2022/03/06 02:38:05;;;;;;;47.35;21.30;;;;;;;2.66;100.00;96957.69;5064839;28;20060;-59
2022/03/06 02:40:37;;;;;;;46.38;19.58;;;;;;;2.67;100.00;96942.91;5064571;28;20049;-59
2022/03/06 02:43:05;;;;;;;36.50;16.23;;;;;;;2.66;100.00;96952.22;5063436;28;20059;-59
2022/03/06 02:45:32;;;;;;;42.88;19.15;;;;;;;2.70;100.00;96970.38;5062987;28;20048;-59
2022/03/06 02:48:00;;;;;;;40.33;18.08;;;;;;;2.63;100.00;96952.84;5064531;28;20422;-59
2022/03/06 02:50:29;;;;;;;44.50;19.13;;;;;;;2.62;100.00;96959.47;5064610;28;20048;-59
2022/03/06 02:52:58;;;;;;;46.33;19.55;;;;;;;2.61;100.00;96955.09;5063068;28;20048;-59
2022/03/06 02:55:25;;;;;;;48.65;19.05;;;;;;;2.61;100.00;96960.56;5064712;28;20057;-58
2022/03/06 02:57:52;;;;;;;40.53;17.70;;;;;;;2.57;100.00;96960.44;5064279;28;20061;-58
2022/03/06 03:00:20;;;;;;;42.05;18.83;;;;;;;2.65;100.00;96961.56;5064387;28;20609;-59
2022/03/06 03:02:48;;;;;;;51.25;19.65;;;;;;;2.39;100.00;96919.72;5064427;28;20075;-60
2022/03/06 03:05:17;;;;;;;41.08;18.52;;;;;;;2.58;100.00;96950.28;5064555;28;20102;-59
2022/03/06 03:07:46;;;;;;;39.97;17.80;;;;;;;2.41;100.00;96925.66;5064000;28;20056;-59
2022/03/06 03:10:15;;;;;;;40.22;16.65;;;;;;;2.46;100.00;96937.28;5063767;28;20064;-61
2022/03/06 03:12:42;;;;;;;40.42;17.85;;;;;;;2.69;100.00;96954.28;5063895;28;20531;-62
2022/03/06 03:15:10;;;;;;;44.00;18.50;;;;;;;2.71;100.00;96965.72;5064193;28;20172;-59
2022/03/06 03:17:37;;;;;;;41.80;17.55;;;;;;;2.63;100.00;96958.31;5064836;28;20759;-59
2022/03/06 03:20:06;;;;;;;48.25;18.63;;;;;;;2.68;100.00;96960.91;5064385;28;20540;-58
2022/03/06 03:22:32;;;;;;;38.38;18.45;;;;;;;2.65;100.00;96962.38;5064079;28;20062;-61
2022/03/06 03:24:59;;;;;;;43.13;19.45;;;;;;;2.44;100.00;96950.44;5063938;28;20059;-59
2022/03/06 03:27:26;;;;;;;44.67;19.85;;;;;;;2.59;100.00;97044.84;5065152;28;20063;-60
2022/03/06 03:29:52;;;;;;;47.70;19.00;;;;;;;2.64;100.00;96971.66;5082572;28;20554;-58
2022/03/06 03:32:19;;;;;;;44.00;18.08;;;;;;;2.59;100.00;96973.78;5083802;28;20510;-60
2022/03/06 03:34:46;;;;;;;46.17;19.98;;;;;;;2.58;100.00;96970.22;5082658;28;20052;-61
2022/03/06 03:37:13;;;;;;;46.78;20.02;;;;;;;2.48;100.00;96967.00;5082432;28;20052;-58
2022/03/06 03:39:39;;;;;;;51.67;19.63;;;;;;;2.38;100.00;96957.19;5082822;28;20055;-60
2022/03/06 03:42:06;;;;;;;47.72;18.83;;;;;;;2.15;100.00;96927.59;5083379;28;20581;-59
2022/03/06 03:44:33;;;;;;;44.30;19.90;;;;;;;2.56;100.00;96971.69;5083611;28;20059;-59
2022/03/06 03:47:00;;;;;;;47.75;20.38;;;;;;;2.60;100.00;96964.44;5063264;28;20078;-60
2022/03/06 03:49:27;;;;;;;50.28;20.55;;;;;;;2.60;100.00;96965.25;5082790;28;20515;-62
2022/03/06 03:51:53;;;;;;;48.80;19.58;;;;;;;2.51;100.00;96963.63;5083352;28;20056;-60
2022/03/06 03:54:20;;;;;;;47.25;19.13;;;;;;;2.48;100.00;96969.75;5083379;28;20063;-61
2022/03/06 03:56:47;;;;;;;46.10;19.50;;;;;;;2.40;100.00;96965.06;5083539;28;20063;-60
2022/03/06 03:59:13;;;;;;;50.00;21.00;;;;;;;2.39;100.00;96964.25;5083794;28;20051;-60
2022/03/06 04:01:40;;;;;;;52.53;20.30;;;;;;;2.38;100.00;96967.31;5084110;28;20044;-59
2022/03/06 04:04:08;;;;;;;46.97;20.63;;;;;;;2.41;100.00;96966.66;5083628;28;20052;-60
2022/03/06 04:06:34;;;;;;;43.85;17.48;;;;;;;2.33;100.00;96971.00;5081990;28;20067;-62
2022/03/06 04:09:01;;;;;;;55.03;20.33;;;;;;;2.35;100.00;96974.22;5083444;28;20106;-60
2022/03/06 04:11:28;;;;;;;54.50;22.45;;;;;;;2.33;100.00;96970.19;5082159;28;20082;-61
2022/03/06 04:13:54;;;;;;;54.90;21.48;;;;;;;2.37;100.00;96982.13;5081987;28;20059;-61
2022/03/06 04:16:21;;;;;;;54.22;21.52;;;;;;;2.34;100.00;96966.34;5083571;28;20062;-58
2022/03/06 04:18:48;;;;;;;54.78;22.00;;;;;;;2.16;100.00;96948.31;5083456;28;21087;-58
2022/03/06 04:21:14;;;;;;;54.60;21.80;;;;;;;2.21;100.00;96979.03;5083903;28;20051;-58
2022/03/06 04:23:41;;;;;;;56.83;20.45;;;;;;;2.27;100.00;96971.47;5083012;28;20634;-58
2022/03/06 04:26:08;;;;;;;62.55;23.73;;;;;;;1.89;100.00;96981.34;5081852;28;20673;-58
2022/03/06 04:28:35;;;;;;;55.15;22.52;;;;;;;2.24;100.00;96967.47;5072386;28;20437;-59
2022/03/06 04:31:02;;;;;;;91.45;33.45;;;;;;;2.27;100.00;96966.00;5061450;28;20629;-59
2022/03/06 04:33:28;;;;;;;65.57;25.98;;;;;;;2.30;100.00;96968.09;5061501;28;20060;-59
2022/03/06 04:35:55;;;;;;;65.70;24.58;;;;;;;2.11;100.00;96940.25;5062821;28;20059;-60
2022/03/06 04:38:22;;;;;;;56.40;23.52;;;;;;;1.83;100.00;96917.06;5063064;28;20147;-60
2022/03/06 04:40:48;;;;;;;56.72;24.08;;;;;;;2.21;100.00;96975.50;5063003;28;20533;-59
2022/03/06 04:43:15;;;;;;;59.50;23.38;;;;;;;1.69;100.00;96883.63;5061544;28;20060;-58
2022/03/06 04:45:42;;;;;;;58.40;23.35;;;;;;;1.98;100.00;96935.72;5061297;28;20054;-59
2022/03/06 04:48:08;;;;;;;55.53;22.42;;;;;;;2.21;100.00;96978.22;5062807;28;20582;-59
2022/03/06 04:50:35;;;;;;;58.42;23.00;;;;;;;2.02;100.00;96983.16;5062972;28;20053;-60
2022/03/06 04:53:02;;;;;;;59.60;24.05;;;;;;;2.16;100.00;96981.09;5063409;28;20049;-58
2022/03/06 04:55:28;;;;;;;59.55;24.08;;;;;;;2.04;100.00;96959.84;5063394;28;20061;-59
2022/03/06 04:57:55;;;;;;;64.53;24.95;;;;;;;2.11;100.00;96983.97;5062946;28;20052;-60
2022/03/06 05:00:22;;;;;;;59.08;22.73;;;;;;;2.15;100.00;96971.31;5062778;28;20059;-58
2022/03/06 05:02:48;;;;;;;61.50;24.55;;;;;;;1.54;100.00;96872.03;5062807;28;20800;-59
2022/03/06 05:05:15;;;;;;;64.35;23.73;;;;;;;2.20;100.00;96988.34;5062475;28;20060;-58
2022/03/06 05:07:42;;;;;;;57.20;23.77;;;;;;;2.09;100.00;96988.94;5064882;28;20056;-59
2022/03/06 05:10:12;;;;;;;61.17;24.20;;;;;;;1.70;100.00;96901.63;5066444;28;20275;-59
2022/03/06 05:12:41;;;;;;;55.85;23.15;;;;;;;2.22;100.00;96977.09;5066626;28;20424;-59
2022/03/06 05:15:10;;;;;;;59.38;22.25;;;;;;;2.04;100.00;96959.84;5064720;28;20132;-59
2022/03/06 05:17:39;;;;;;;58.00;23.27;;;;;;;2.12;100.00;96961.00;5066060;28;20098;-59
2022/03/06 05:20:07;;;;;;;54.97;23.98;;;;;;;2.13;100.00;96984.47;5064556;28;20051;-61
2022/03/06 05:22:34;;;;;;;59.67;25.42;;;;;;;2.27;100.00;96974.22;5065842;28;20521;-59
2022/03/06 05:25:01;;;;;;;60.45;21.70;;;;;;;2.09;100.00;96997.13;5066041;28;20087;-61
2022/03/06 05:27:27;;;;;;;66.80;25.52;;;;;;;2.20;100.00;96977.41;5067195;28;20052;-59
2022/03/06 05:29:54;;;;;;;56.05;23.95;;;;;;;2.24;100.00;96969.38;5086307;28;20060;-60
2022/03/06 05:32:21;;;;;;;65.10;26.75;;;;;;;2.28;100.00;96979.34;5086353;28;20095;-60
2022/03/06 05:34:48;;;;;;;64.85;25.05;;;;;;;2.17;100.00;96982.69;5086180;28;20044;-60
2022/03/06 05:37:14;;;;;;;63.42;24.90;;;;;;;1.73;100.00;96898.25;5085972;28;20056;-60
2022/03/06 05:39:41;;;;;;;62.65;24.15;;;;;;;1.79;100.00;96957.06;5086365;28;20418;-60
2022/03/06 05:42:08;;;;;;;59.78;24.33;;;;;;;1.76;100.00;96900.34;5084504;28;20067;-60
2022/03/06 05:44:35;;;;;;;62.58;24.27;;;;;;;2.43;100.00;96986.28;5085771;28;20052;-60
2022/03/06 05:47:02;;;;;;;60.75;24.77;;;;;;;2.48;100.00;96999.81;5085469;28;20571;-59
2022/03/06 05:49:28;;;;;;;51.72;23.10;;;;;;;2.05;100.00;96897.84;5084445;28;20052;-59
2022/03/06 05:51:55;;;;;;;63.50;24.10;;;;;;;2.55;100.00;96986.47;5085590;28;20430;-60
2022/03/06 05:54:22;;;;;;;57.13;21.92;;;;;;;2.58;100.00;96988.56;5085961;28;20052;-59
2022/03/06 05:56:48;;;;;;;58.95;24.35;;;;;;;2.58;100.00;96983.91;5085787;28;20047;-59
2022/03/06 05:59:15;;;;;;;64.93;23.30;;;;;;;2.65;100.00;96988.88;5084004;28;20067;-60
2022/03/06 06:01:42;;;;;;;65.63;28.33;;;;;;;2.34;100.00;96928.09;5085475;28;20048;-58
2022/03/06 06:04:09;;;;;;;61.75;25.17;;;;;;;2.68;100.00;96963.63;5085188;28;20044;-58
2022/03/06 06:06:35;;;;;;;60.58;25.30;;;;;;;2.49;100.00;96957.69;5085520;28;20164;-58
2022/03/06 06:09:02;;;;;;;69.28;25.88;;;;;;;2.69;100.00;96989.84;5083529;28;20484;-60
2022/03/06 06:11:29;;;;;;;70.18;27.83;;;;;;;2.62;100.00;96973.13;5084335;28;20050;-58
2022/03/06 06:13:56;;;;;;;57.45;23.50;;;;;;;2.64;100.00;96987.28;5085304;28;20052;-60
2022/03/06 06:16:23;;;;;;;60.97;24.75;;;;;;;2.62;100.00;96973.13;5083991;28;20048;-58
2022/03/06 06:18:51;;;;;;;58.35;23.98;;;;;;;2.21;100.00;96940.78;5085231;28;20510;-57
2022/03/06 06:21:19;;;;;;;56.90;24.55;;;;;;;2.22;100.00;96908.78;5085442;28;20044;-57
2022/03/06 06:23:46;;;;;;;62.42;25.40;;;;;;;2.57;100.00;96982.31;5084832;28;20138;-58
2022/03/06 06:26:12;;;;;;;56.53;22.67;;;;;;;2.79;100.00;96995.00;5084488;28;20048;-58
2022/03/06 06:28:39;;;;;;;58.17;25.35;;;;;;;2.82;100.00;97005.28;5074302;28;20044;-60
2022/03/06 06:31:07;;;;;;;61.90;25.90;;;;;;;2.85;100.00;97004.66;5064510;28;20131;-59
2022/03/06 06:33:35;;;;;;;52.30;22.63;;;;;;;2.77;100.00;97005.44;5064777;28;20048;-60
2022/03/06 06:36:03;;;;;;;56.80;24.75;;;;;;;1.94;100.00;96891.06;5063428;28;20506;-62
2022/03/06 06:38:30;;;;;;;45.92;18.05;;;;;;;2.65;100.00;97010.75;5063110;28;20514;-60
2022/03/06 06:40:57;;;;;;;56.58;22.85;;;;;;;2.56;100.00;96985.34;5064999;28;20048;-61
2022/03/06 06:43:24;;;;;;;52.90;21.45;;;;;;;2.69;100.00;97006.25;5062753;28;20052;-58
2022/03/06 06:45:51;;;;;;;53.97;21.50;;;;;;;2.72;100.00;97009.16;5064674;28;20060;-60
2022/03/06 06:48:17;;;;;;;58.95;22.73;;;;;;;2.73;100.00;97007.22;5064125;28;20052;-61
2022/03/06 06:50:44;;;;;;;53.17;21.42;;;;;;;2.69;100.00;97006.25;5063944;28;20056;-60
2022/03/06 06:53:11;;;;;;;50.88;21.48;;;;;;;0.08;100.00;96620.25;5062681;28;20564;-59
2022/03/06 06:55:38;;;;;;;54.00;22.13;;;;;;;2.41;100.00;96978.41;5064268;28;20052;-57
2022/03/06 06:58:05;;;;;;;57.22;23.98;;;;;;;2.64;100.00;97009.94;5064636;28;20058;-58
2022/03/06 07:00:32;;;;;;;54.30;23.08;;;;;;;2.38;100.00;96948.19;5064280;28;20262;-61
2022/03/06 07:03:00;;;;;;;50.17;21.58;;;;;;;2.16;100.00;96932.75;5062667;28;20553;-61
2022/03/06 07:05:28;;;;;;;51.88;20.02;;;;;;;1.76;100.00;96883.97;5064128;28;20056;-58
2022/03/06 07:07:54;;;;;;;66.05;22.33;;;;;;;2.26;100.00;96948.81;5063838;28;20056;-58
2022/03/06 07:10:22;;;;;;;50.55;22.85;;;;;;;2.60;100.00;97010.91;5064190;28;20063;-61
2022/03/06 07:12:55;;;;;;;48.65;21.92;;;;;;;2.28;100.00;96968.44;5063951;28;20591;-57
2022/03/06 07:15:28;;;;;;;51.03;22.40;;;;;;;2.37;100.00;96973.91;5064428;28;20048;-60
2022/03/06 07:17:58;;;;;;;62.70;23.83;;;;;;;2.55;100.00;96990.00;5064303;28;20056;-59
2022/03/06 07:20:25;;;;;;;61.47;25.70;;;;;;;2.57;100.00;96997.88;5062593;28;20087;-60
2022/03/06 07:22:53;;;;;;;59.22;24.27;;;;;;;2.62;100.00;97000.47;5063370;28;20101;-60
2022/03/06 07:25:20;;;;;;;59.47;23.20;;;;;;;2.17;100.00;96917.13;5063968;28;20060;-58
2022/03/06 07:27:46;;;;;;;50.42;22.25;;;;;;;2.70;100.00;96996.94;5065150;28;20542;-61
2022/03/06 07:30:14;;;;;;;55.38;23.02;;;;;;;2.61;100.00;96993.38;5084599;28;20040;-59
2022/03/06 07:32:42;;;;;;;52.97;21.65;;;;;;;2.70;100.00;96991.47;5083937;28;20048;-59
2022/03/06 07:35:10;;;;;;;51.38;22.17;;;;;;;2.76;100.00;96995.66;5083796;28;20144;-60
2022/03/06 07:37:38;;;;;;;54.63;24.55;;;;;;;2.64;100.00;96992.75;5083701;28;20066;-61
2022/03/06 07:40:06;;;;;;;52.03;22.33;;;;;;;2.76;100.00;96990.19;5083858;28;20056;-58
2022/03/06 07:42:33;;;;;;;54.95;24.63;;;;;;;2.48;100.00;96956.88;5083429;28;20411;-58
2022/03/06 07:45:00;;;;;;;49.90;20.98;;;;;;;2.72;100.00;97005.59;5083758;28;20056;-58
2022/03/06 07:47:27;;;;;;;49.55;21.77;;;;;;;2.81;100.00;97003.69;5081991;28;20044;-60
2022/03/06 07:49:53;;;;;;;55.92;23.40;;;;;;;2.86;100.00;96989.88;5083246;28;20063;-58
2022/03/06 07:52:20;;;;;;;44.13;18.52;;;;;;;2.69;100.00;96978.91;5083364;28;20048;-62
2022/03/06 07:54:47;;;;;;;58.60;25.38;;;;;;;2.42;100.00;96930.03;5082548;28;20431;-61
2022/03/06 07:57:14;;;;;;;53.10;21.45;;;;;;;2.80;100.00;96999.34;5081987;28;20051;-59
2022/03/06 07:59:40;;;;;;;47.40;19.58;;;;;;;2.93;100.00;96995.66;5081917;28;20273;-59
2022/03/06 08:02:07;;;;;;;54.45;21.75;;;;;;;2.88;100.00;96999.34;5083404;28;20044;-58
2022/03/06 08:04:34;;;;;;;55.65;22.05;;;;;;;2.94;100.00;97008.22;5083712;28;20105;-61
2022/03/06 08:07:01;;;;;;;45.83;21.42;;;;;;;2.94;100.00;96991.81;5083407;28;20066;-61
2022/03/06 08:09:27;;;;;;;53.00;23.10;;;;;;;2.88;100.00;96982.94;5083612;28;20051;-60
2022/03/06 08:11:54;;;;;;;51.22;21.63;;;;;;;3.03;100.00;96998.06;5083553;28;20075;-62
2022/03/06 08:14:21;;;;;;;46.90;21.08;;;;;;;2.12;100.00;96859.94;5083367;28;20058;-58
2022/03/06 08:16:48;;;;;;;59.53;23.50;;;;;;;2.13;100.00;96867.00;5081665;28;20497;-61
2022/03/06 08:19:15;;;;;;;52.90;21.75;;;;;;;3.05;100.00;96995.81;5082993;28;20054;-61
2022/03/06 08:21:42;;;;;;;48.40;21.85;;;;;;;3.05;100.00;96993.09;5083248;28;20064;-58
2022/03/06 08:24:09;;;;;;;52.25;21.55;;;;;;;3.10;100.00;96992.88;5083345;28;20044;-58
2022/03/06 08:26:35;;;;;;;53.05;21.00;;;;;;;3.00;100.00;96985.81;5083371;28;20051;-61
2022/03/06 08:29:02;;;;;;;50.25;22.50;;;;;;;2.97;100.00;96977.47;5069702;28;20049;-60
2022/03/06 08:31:29;;;;;;;42.63;19.38;;;;;;;2.95;100.00;96977.00;5061681;28;20057;-60
2022/03/06 08:33:56;;;;;;;48.58;20.15;;;;;;;2.99;100.00;96976.00;5062799;28;20126;-61
2022/03/06 08:36:22;;;;;;;53.17;19.52;;;;;;;2.84;100.00;96949.16;5062835;28;20055;-61
2022/03/06 08:38:49;;;;;;;49.97;21.27;;;;;;;2.85;100.00;96971.84;5058172;28;20055;-58
2022/03/06 08:41:16;;;;;;;57.13;23.25;;;;;;;2.60;100.00;96943.38;5047716;28;20045;-62
2022/03/06 08:43:43;;;;;;;57.85;20.85;;;;;;;0.59;100.00;96700.22;5066923;28;20056;-58
2022/03/06 08:46:09;;;;;;;48.60;22.05;;;;;;;2.43;100.00;96898.84;5065231;28;20150;-61
2022/03/06 08:48:37;;;;;;;53.55;23.23;;;;;;;2.93;100.00;96984.69;5067453;28;20431;-61
2022/03/06 08:51:05;;;;;;;61.97;26.15;;;;;;;2.34;100.00;96889.84;5066460;28;20059;-60
2022/03/06 08:53:32;;;;;;;80.88;31.58;;;;;;;2.65;100.00;96907.69;5066477;28;20163;-58
2022/03/06 08:55:59;;;;;;;60.45;24.90;;;;;;;2.72;100.00;96923.56;5066920;28;20053;-59
2022/03/06 08:58:27;;;;;;;46.15;20.85;;;;;;;2.25;100.00;96875.34;5066629;28;20481;-59
2022/03/06 09:00:54;;;;;;;44.45;19.20;;;;;;;3.06;100.00;96986.47;5066802;28;20059;-58
2022/03/06 09:03:21;;;;;;;57.15;21.63;;;;;;;2.95;100.00;96994.22;5066047;28;20088;-60
2022/03/06 09:05:48;;;;;;;54.88;22.35;;;;;;;2.75;100.00;96956.56;5066863;28;20124;-60
2022/03/06 09:08:15;;;;;;;50.28;21.27;;;;;;;3.06;100.00;96989.22;5066742;28;20083;-59
2022/03/06 09:10:41;;;;;;;53.30;22.25;;;;;;;3.07;100.00;96993.53;5066597;28;20144;-58
2022/03/06 09:13:09;;;;;;;51.30;21.35;;;;;;;3.04;100.00;96996.91;5066070;28;20581;-58
2022/03/06 09:15:37;;;;;;;63.00;22.80;;;;;;;2.98;100.00;96998.22;5066294;28;20056;-59
2022/03/06 09:18:05;;;;;;;59.75;23.30;;;;;;;2.85;100.00;96958.97;5064554;28;20480;-60
2022/03/06 09:20:31;;;;;;;61.42;23.33;;;;;;;3.19;100.00;97003.84;5064593;28;20056;-59
2022/03/06 09:22:58;;;;;;;76.05;30.67;;;;;;;2.78;100.00;96911.38;5065834;28;20459;-62
2022/03/06 09:25:25;;;;;;;65.10;26.75;;;;;;;3.18;100.00;97003.03;5066617;28;20052;-59
2022/03/06 09:27:52;;;;;;;53.95;23.88;;;;;;;2.35;100.00;96856.72;5069249;28;20367;-59
2022/03/06 09:30:18;;;;;;;52.80;23.92;;;;;;;3.26;100.00;96988.53;5084769;28;20052;-62
2022/03/06 09:32:45;;;;;;;46.28;18.75;;;;;;;3.35;100.00;96997.50;5084749;28;20052;-61
2022/03/06 09:35:12;;;;;;;50.90;21.50;;;;;;;3.24;100.00;96990.78;5086351;28;20052;-62
2022/03/06 09:37:42;;;;;;;45.83;21.35;;;;;;;3.09;100.00;96955.72;5085991;28;20075;-62
2022/03/06 09:40:09;;;;;;;51.00;20.52;;;;;;;3.48;100.00;96996.53;5086019;28;20060;-60
2022/03/06 09:42:37;;;;;;;44.28;19.83;;;;;;;3.30;100.00;96940.22;5085665;28;20071;-61
2022/03/06 09:45:06;;;;;;;41.88;18.63;;;;;;;3.74;98.16;96986.31;5086008;28;20083;-61
2022/03/06 09:47:32;;;;;;;46.45;20.30;;;;;;;3.86;99.44;96994.63;5085432;28;20044;-61
2022/03/06 09:50:00;;;;;;;42.53;19.08;;;;;;;4.05;99.40;96995.03;5086877;28;20044;-60
2022/03/06 09:52:27;;;;;;;59.42;25.70;;;;;;;4.19;99.26;96995.63;5083899;28;20048;-63
2022/03/06 09:54:54;;;;;;;50.92;21.17;;;;;;;3.99;98.88;97001.84;5085591;28;20056;-60
2022/03/06 09:57:21;;;;;;;41.28;20.58;;;;;;;3.92;97.52;96990.56;5085477;28;20052;-61
2022/03/06 09:59:48;;;;;;;36.58;19.65;;;;;;;3.61;98.73;96946.25;5085250;28;20062;-59
2022/03/06 10:02:16;;;;;;;40.13;19.00;;;;;;;3.95;98.11;97000.88;5085054;28;20056;-60
2022/03/06 10:04:46;;;;;;;39.67;19.42;;;;;;;3.79;97.92;96980.66;5083939;28;20434;-62
2022/03/06 10:07:15;;;;;;;41.83;18.80;;;;;;;3.74;96.66;96997.28;5085308;28;20151;-61
2022/03/06 10:09:50;;;;;;;38.65;18.13;;;;;;;2.91;97.03;96951.38;5085257;28;20082;-60
2022/03/06 10:12:19;;;;;;;44.58;18.38;;;;;;;3.54;99.42;96995.22;5085326;28;20052;-62
2022/03/06 10:14:47;;;;;;;47.78;20.08;;;;;;;3.61;99.24;97006.50;5085662;28;20078;-63
2022/03/06 10:17:24;;;;;;;44.47;18.98;;;;;;;3.46;99.02;96982.38;5083708;28;20498;-60
2022/03/06 10:20:01;;;;;;;54.65;21.50;;;;;;;3.54;99.90;96989.75;5083435;28;20048;-61
2022/03/06 10:22:39;;;;;;;41.95;19.25;;;;;;;3.52;100.00;96970.13;5084644;28;20070;-61
2022/03/06 10:25:08;;;;;;;39.38;17.85;;;;;;;3.75;99.51;96982.44;5084944;28;20070;-59
2022/03/06 10:27:46;;;;;;;36.22;16.63;;;;;;;3.61;98.54;96981.84;5084504;28;20059;-61
2022/03/06 10:30:26;;;;;;;41.83;18.23;;;;;;;3.46;98.24;96978.84;5063886;28;20048;-61
2022/03/06 10:32:54;;;;;;;47.72;18.95;;;;;;;3.45;99.52;96975.28;5064842;28;20056;-60
2022/03/06 10:35:44;;;;;;;49.58;19.52;;;;;;;3.24;98.70;96936.03;5065060;28;20053;-58
2022/03/06 10:38:28;;;;;;;43.17;17.92;;;;;;;3.45;100.00;96952.56;5064851;28;20072;-60
2022/03/06 10:40:57;;;;;;;40.95;18.60;;;;;;;3.58;99.04;96963.34;5063314;28;20505;-58
2022/03/06 10:43:27;;;;;;;46.53;20.75;;;;;;;3.63;99.72;96957.69;5064182;28;20078;-60
2022/03/06 10:46:15;;;;;;;44.60;21.27;;;;;;;3.01;98.76;96827.97;5064279;28;20087;-60
2022/03/06 10:49:08;;;;;;;38.35;17.58;;;;;;;3.16;97.45;96876.69;5062665;28;20143;-61
2022/03/06 10:51:44;;;;;;;37.72;16.77;;;;;;;3.61;100.00;96948.97;5064846;28;20060;-59
2022/03/06 10:54:13;;;;;;;38.38;17.17;;;;;;;3.33;99.72;96950.53;5062942;28;20052;-61
2022/03/06 10:56:43;;;;;;;49.97;18.38;;;;;;;3.26;100.00;96950.22;5064357;28;20131;-59
2022/03/06 10:59:21;;;;;;;34.42;15.63;;;;;;;3.26;100.00;96942.00;5063894;28;20501;-61
2022/03/06 11:01:49;;;;;;;39.30;17.75;;;;;;;3.22;100.00;96938.31;5062691;28;20376;-58
2022/03/06 11:04:18;;;;;;;36.53;16.60;;;;;;;3.25;100.00;96947.78;5063326;28;20064;-60
2022/03/06 11:06:47;;;;;;;33.25;15.80;;;;;;;2.94;100.00;96885.13;5064092;28;20408;-60
2022/03/06 11:09:16;;;;;;;46.83;19.33;;;;;;;3.18;100.00;96923.66;5062416;28;20049;-59
2022/03/06 11:11:48;;;;;;;62.03;30.52;;;;;;;3.41;100.00;96938.75;5064453;28;20052;-59
2022/03/06 11:14:16;;;;;;;37.35;17.77;;;;;;;2.48;99.96;96781.16;5062265;28;20067;-61
2022/03/06 11:16:43;;;;;;;40.42;16.45;;;;;;;3.49;100.00;96937.91;5063633;28;20048;-60
2022/03/06 11:19:10;;;;;;;32.35;15.30;;;;;;;3.49;99.71;96935.19;5063797;28;20426;-59